65.7°F
Current conditions from King Hill
Updated every 5 minutes
 
  Tuesday September 2, 2014

Station Historical Data
Daily Summary for February 9, 2012 Units:  Both    English   Metric
« Previous Day
Next Day »
Daily Weekly Monthly Yearly Custom
  High: Low: Average:
Temperature: 40.8 °F /  4.9 °C 19.7 °F /  -6.8 °C 29 °F /  -1.7 °C
Dew Point: 20.6 °F /  -6.3 °C 11.8 °F /  -11.2 °C 15.6 °F /  -9.1 °C
Humidity: 73% 38% 58%
Wind Speed: 9.0mph /  14.5km/h - 3.3mph /  5.3km/h
Wind Gust: 14.0mph /  22.5km/h - -
Wind- - SW
Pressure: 30.03 in /  1016.8 hPa 29.95 in /  1014.1 hPa -
Precipitation: 0.00 in /  0 mm    
Historical Graphs
 
 
Tabular Data for February 9, 2012
Time Temperature Dew Point Pressure Wind Wind Speed Wind Gust Humidity Daily Rainfall
00:04 23.7 °F /  -4.6 °C 14.3 °F /  -9.8 °C 30.03in /  1016.8hPa SW 3.0mph /  4.8km/h 5.0mph /  8km/h 67% 0.00in /  0mm
00:09 23.7 °F /  -4.6 °C 14.3 °F /  -9.8 °C 30.03in /  1016.8hPa SW 1.0mph /  1.6km/h 5.0mph /  8km/h 67% 0.00in /  0mm
00:14 23.4 °F /  -4.8 °C 14.1 °F /  -9.9 °C 30.03in /  1016.8hPa SW 1.0mph /  1.6km/h 5.0mph /  8km/h 67% 0.00in /  0mm
00:19 23.1 °F /  -4.9 °C 14.1 °F /  -9.9 °C 30.03in /  1016.8hPa Calm   4.0mph /  6.4km/h 68% 0.00in /  0mm
00:24 23.0 °F /  -5 °C 14.0 °F /  -10 °C 30.03in /  1016.8hPa SW 1.0mph /  1.6km/h 3.0mph /  4.8km/h 68% 0.00in /  0mm
00:29 22.8 °F /  -5.1 °C 13.8 °F /  -10.1 °C 30.03in /  1016.8hPa Calm   3.0mph /  4.8km/h 68% 0.00in /  0mm
00:35 22.7 °F /  -5.2 °C 14.1 °F /  -9.9 °C 30.03in /  1016.8hPa SW 2.0mph /  3.2km/h 4.0mph /  6.4km/h 69% 0.00in /  0mm
00:44 22.2 °F /  -5.4 °C 13.6 °F /  -10.2 °C 30.03in /  1016.8hPa SW 1.0mph /  1.6km/h 4.0mph /  6.4km/h 69% 0.00in /  0mm
00:49 21.7 °F /  -5.7 °C 13.1 °F /  -10.5 °C 30.03in /  1016.8hPa Calm   3.0mph /  4.8km/h 69% 0.00in /  0mm
00:54 21.6 °F /  -5.8 °C 13.3 °F /  -10.4 °C 30.03in /  1016.8hPa Calm   2.0mph /  3.2km/h 70% 0.00in /  0mm
00:59 21.8 °F /  -5.7 °C 13.5 °F /  -10.3 °C 30.03in /  1016.8hPa Calm     70% 0.00in /  0mm
01:04 21.8 °F /  -5.7 °C 13.5 °F /  -10.3 °C 30.03in /  1016.8hPa Calm     70% 0.00in /  0mm
01:09 21.7 °F /  -5.7 °C 13.4 °F /  -10.3 °C 30.03in /  1016.8hPa Calm     70% 0.00in /  0mm
01:14 21.6 °F /  -5.8 °C 13.3 °F /  -10.4 °C 30.03in /  1016.8hPa Calm     70% 0.00in /  0mm
01:19 21.8 °F /  -5.7 °C 13.5 °F /  -10.3 °C 30.03in /  1016.8hPa SW 1.0mph /  1.6km/h 3.0mph /  4.8km/h 70% 0.00in /  0mm
01:24 21.8 °F /  -5.7 °C 13.5 °F /  -10.3 °C 30.03in /  1016.8hPa SW 2.0mph /  3.2km/h 3.0mph /  4.8km/h 70% 0.00in /  0mm
01:29 21.7 °F /  -5.7 °C 13.4 °F /  -10.3 °C 30.03in /  1016.8hPa Calm   3.0mph /  4.8km/h 70% 0.00in /  0mm
01:34 21.8 °F /  -5.7 °C 13.5 °F /  -10.3 °C 30.03in /  1016.8hPa Calm   2.0mph /  3.2km/h 70% 0.00in /  0mm
01:39 21.6 °F /  -5.8 °C 13.3 °F /  -10.4 °C 30.03in /  1016.8hPa Calm     70% 0.00in /  0mm
01:44 21.3 °F /  -5.9 °C 13.0 °F /  -10.6 °C 30.03in /  1016.8hPa Calm     70% 0.00in /  0mm
01:49 21.1 °F /  -6.1 °C 13.2 °F /  -10.4 °C 30.03in /  1016.8hPa SW 2.0mph /  3.2km/h 4.0mph /  6.4km/h 71% 0.00in /  0mm
01:54 21.8 °F /  -5.7 °C 13.5 °F /  -10.3 °C 30.03in /  1016.8hPa SW 2.0mph /  3.2km/h 4.0mph /  6.4km/h 70% 0.00in /  0mm
01:59 22.0 °F /  -5.6 °C 13.4 °F /  -10.3 °C 30.03in /  1016.8hPa SW 1.0mph /  1.6km/h 4.0mph /  6.4km/h 69% 0.00in /  0mm
02:04 21.7 °F /  -5.7 °C 13.1 °F /  -10.5 °C 30.03in /  1016.8hPa Calm   3.0mph /  4.8km/h 69% 0.00in /  0mm
02:09 21.5 °F /  -5.8 °C 13.2 °F /  -10.4 °C 30.03in /  1016.8hPa Calm   3.0mph /  4.8km/h 70% 0.00in /  0mm
02:14 21.7 °F /  -5.7 °C 13.4 °F /  -10.3 °C 30.02in /  1016.5hPa Calm   3.0mph /  4.8km/h 70% 0.00in /  0mm
02:19 21.6 °F /  -5.8 °C 13.0 °F /  -10.6 °C 30.02in /  1016.5hPa SW 1.0mph /  1.6km/h 3.0mph /  4.8km/h 69% 0.00in /  0mm
02:24 21.7 °F /  -5.7 °C 13.4 °F /  -10.3 °C 30.02in /  1016.5hPa Calm   3.0mph /  4.8km/h 70% 0.00in /  0mm
02:29 22.1 °F /  -5.5 °C 13.5 °F /  -10.3 °C 30.02in /  1016.5hPa SW 2.0mph /  3.2km/h 4.0mph /  6.4km/h 69% 0.00in /  0mm
02:34 22.6 °F /  -5.2 °C 13.6 °F /  -10.2 °C 30.02in /  1016.5hPa Calm   4.0mph /  6.4km/h 68% 0.00in /  0mm
02:39 22.8 °F /  -5.1 °C 13.8 °F /  -10.1 °C 30.01in /  1016.1hPa Calm   4.0mph /  6.4km/h 68% 0.00in /  0mm
02:44 21.8 °F /  -5.7 °C 12.2 °F /  -11 °C 30.01in /  1016.1hPa Calm   4.0mph /  6.4km/h 66% 0.00in /  0mm
02:49 20.4 °F /  -6.4 °C 11.9 °F /  -11.2 °C 30.01in /  1016.1hPa Calm     69% 0.00in /  0mm
02:54 19.9 °F /  -6.7 °C 12.0 °F /  -11.1 °C 30.01in /  1016.1hPa Calm     71% 0.00in /  0mm
02:59 19.8 °F /  -6.8 °C 12.2 °F /  -11 °C 30.01in /  1016.1hPa SW 1.0mph /  1.6km/h 3.0mph /  4.8km/h 72% 0.00in /  0mm
03:04 20.2 °F /  -6.6 °C 12.6 °F /  -10.8 °C 30.01in /  1016.1hPa Calm   3.0mph /  4.8km/h 72% 0.00in /  0mm
03:09 20.9 °F /  -6.2 °C 13.3 °F /  -10.4 °C 30.00in /  1015.8hPa Calm   3.0mph /  4.8km/h 72% 0.00in /  0mm
03:14 21.5 °F /  -5.8 °C 13.2 °F /  -10.4 °C 30.00in /  1015.8hPa SW 2.0mph /  3.2km/h 3.0mph /  4.8km/h 70% 0.00in /  0mm
03:19 22.2 °F /  -5.4 °C 13.6 °F /  -10.2 °C 30.00in /  1015.8hPa SW 1.0mph /  1.6km/h 3.0mph /  4.8km/h 69% 0.00in /  0mm
03:24 22.4 °F /  -5.3 °C 13.8 °F /  -10.1 °C 30.00in /  1015.8hPa SW 2.0mph /  3.2km/h 3.0mph /  4.8km/h 69% 0.00in /  0mm
03:29 22.4 °F /  -5.3 °C 13.4 °F /  -10.3 °C 29.99in /  1015.5hPa Calm   3.0mph /  4.8km/h 68% 0.00in /  0mm
03:34 21.9 °F /  -5.6 °C 13.0 °F /  -10.6 °C 29.99in /  1015.5hPa SW 1.0mph /  1.6km/h 4.0mph /  6.4km/h 68% 0.00in /  0mm
03:39 21.5 °F /  -5.8 °C 12.9 °F /  -10.6 °C 29.99in /  1015.5hPa Calm   4.0mph /  6.4km/h 69% 0.00in /  0mm
03:44 21.3 °F /  -5.9 °C 12.7 °F /  -10.7 °C 29.99in /  1015.5hPa SW 2.0mph /  3.2km/h 3.0mph /  4.8km/h 69% 0.00in /  0mm
03:49 21.7 °F /  -5.7 °C 13.4 °F /  -10.3 °C 29.99in /  1015.5hPa SSW 2.0mph /  3.2km/h 4.0mph /  6.4km/h 70% 0.00in /  0mm
03:54 21.2 °F /  -6 °C 12.3 °F /  -10.9 °C 29.99in /  1015.5hPa South 1.0mph /  1.6km/h 4.0mph /  6.4km/h 68% 0.00in /  0mm
03:59 20.6 °F /  -6.3 °C 12.4 °F /  -10.9 °C 29.99in /  1015.5hPa South 1.0mph /  1.6km/h 4.0mph /  6.4km/h 70% 0.00in /  0mm
04:04 19.7 °F /  -6.8 °C 11.8 °F /  -11.2 °C 29.99in /  1015.5hPa South 1.0mph /  1.6km/h 5.0mph /  8km/h 71% 0.00in /  0mm
04:09 20.4 °F /  -6.4 °C 13.1 °F /  -10.5 °C 29.99in /  1015.5hPa WSW 4.0mph /  6.4km/h 8.0mph /  12.9km/h 73% 0.00in /  0mm
04:14 21.4 °F /  -5.9 °C 13.5 °F /  -10.3 °C 29.99in /  1015.5hPa WSW 2.0mph /  3.2km/h 8.0mph /  12.9km/h 71% 0.00in /  0mm
04:19 22.2 °F /  -5.4 °C 13.9 °F /  -10.1 °C 29.99in /  1015.5hPa SW 2.0mph /  3.2km/h 5.0mph /  8km/h 70% 0.00in /  0mm
04:24 22.9 °F /  -5.1 °C 14.3 °F /  -9.8 °C 29.99in /  1015.5hPa WSW 3.0mph /  4.8km/h 6.0mph /  9.7km/h 69% 0.00in /  0mm
04:29 23.4 °F /  -4.8 °C 14.7 °F /  -9.6 °C 29.99in /  1015.5hPa SW 3.0mph /  4.8km/h 7.0mph /  11.3km/h 69% 0.00in /  0mm
04:34 23.8 °F /  -4.6 °C 14.8 °F /  -9.6 °C 29.99in /  1015.5hPa SW 2.0mph /  3.2km/h 7.0mph /  11.3km/h 68% 0.00in /  0mm
04:39 23.8 °F /  -4.6 °C 14.8 °F /  -9.6 °C 29.99in /  1015.5hPa WSW 2.0mph /  3.2km/h 6.0mph /  9.7km/h 68% 0.00in /  0mm
04:44 23.8 °F /  -4.6 °C 14.4 °F /  -9.8 °C 29.99in /  1015.5hPa SW 2.0mph /  3.2km/h 6.0mph /  9.7km/h 67% 0.00in /  0mm
04:49 23.5 °F /  -4.7 °C 14.5 °F /  -9.7 °C 29.99in /  1015.5hPa WSW 2.0mph /  3.2km/h 6.0mph /  9.7km/h 68% 0.00in /  0mm
04:54 23.8 °F /  -4.6 °C 14.8 °F /  -9.6 °C 29.99in /  1015.5hPa WSW 4.0mph /  6.4km/h 6.0mph /  9.7km/h 68% 0.00in /  0mm
04:59 24.3 °F /  -4.3 °C 15.3 °F /  -9.3 °C 29.99in /  1015.5hPa SW 4.0mph /  6.4km/h 6.0mph /  9.7km/h 68% 0.00in /  0mm
05:04 24.4 °F /  -4.2 °C 15.4 °F /  -9.2 °C 29.99in /  1015.5hPa SW 3.0mph /  4.8km/h 6.0mph /  9.7km/h 68% 0.00in /  0mm
05:09 24.3 °F /  -4.3 °C 15.3 °F /  -9.3 °C 29.99in /  1015.5hPa SSW 3.0mph /  4.8km/h 6.0mph /  9.7km/h 68% 0.00in /  0mm
05:14 24.2 °F /  -4.3 °C 15.2 °F /  -9.3 °C 29.99in /  1015.5hPa SSW 2.0mph /  3.2km/h 5.0mph /  8km/h 68% 0.00in /  0mm
05:19 24.2 °F /  -4.3 °C 15.5 °F /  -9.2 °C 29.99in /  1015.5hPa SW 4.0mph /  6.4km/h 7.0mph /  11.3km/h 69% 0.00in /  0mm
05:24 24.3 °F /  -4.3 °C 15.6 °F /  -9.1 °C 29.99in /  1015.5hPa SW 2.0mph /  3.2km/h 8.0mph /  12.9km/h 69% 0.00in /  0mm
05:29 24.2 °F /  -4.3 °C 15.5 °F /  -9.2 °C 29.99in /  1015.5hPa SW 2.0mph /  3.2km/h 8.0mph /  12.9km/h 69% 0.00in /  0mm
05:34 23.9 °F /  -4.5 °C 15.2 °F /  -9.3 °C 30.00in /  1015.8hPa SW 2.0mph /  3.2km/h 7.0mph /  11.3km/h 69% 0.00in /  0mm
05:39 23.5 °F /  -4.7 °C 14.8 °F /  -9.6 °C 30.00in /  1015.8hPa SSW 3.0mph /  4.8km/h 6.0mph /  9.7km/h 69% 0.00in /  0mm
05:44 23.2 °F /  -4.9 °C 14.5 °F /  -9.7 °C 30.00in /  1015.8hPa SW 2.0mph /  3.2km/h 6.0mph /  9.7km/h 69% 0.00in /  0mm
05:49 22.8 °F /  -5.1 °C 14.2 °F /  -9.9 °C 30.00in /  1015.8hPa SW 3.0mph /  4.8km/h 6.0mph /  9.7km/h 69% 0.00in /  0mm
05:54 22.8 °F /  -5.1 °C 14.5 °F /  -9.7 °C 30.00in /  1015.8hPa SW 3.0mph /  4.8km/h 7.0mph /  11.3km/h 70% 0.00in /  0mm
05:59 23.2 °F /  -4.9 °C 14.9 °F /  -9.5 °C 30.00in /  1015.8hPa SSW 3.0mph /  4.8km/h 7.0mph /  11.3km/h 70% 0.00in /  0mm
06:04 23.3 °F /  -4.8 °C 15.3 °F /  -9.3 °C 30.00in /  1015.8hPa SW 3.0mph /  4.8km/h 7.0mph /  11.3km/h 71% 0.00in /  0mm
06:09 23.4 °F /  -4.8 °C 15.4 °F /  -9.2 °C 29.99in /  1015.5hPa SSW 4.0mph /  6.4km/h 8.0mph /  12.9km/h 71% 0.00in /  0mm
06:14 23.4 °F /  -4.8 °C 15.4 °F /  -9.2 °C 29.99in /  1015.5hPa SW 3.0mph /  4.8km/h 8.0mph /  12.9km/h 71% 0.00in /  0mm
06:19 23.1 °F /  -4.9 °C 15.1 °F /  -9.4 °C 30.00in /  1015.8hPa SSW 3.0mph /  4.8km/h 5.0mph /  8km/h 71% 0.00in /  0mm
06:24 23.1 °F /  -4.9 °C 15.1 °F /  -9.4 °C 30.00in /  1015.8hPa SW 3.0mph /  4.8km/h 6.0mph /  9.7km/h 71% 0.00in /  0mm
06:29 22.8 °F /  -5.1 °C 14.8 °F /  -9.6 °C 30.00in /  1015.8hPa SSW 2.0mph /  3.2km/h 6.0mph /  9.7km/h 71% 0.00in /  0mm
06:34 22.5 °F /  -5.3 °C 14.5 °F /  -9.7 °C 30.00in /  1015.8hPa SSW 3.0mph /  4.8km/h 5.0mph /  8km/h 71% 0.00in /  0mm
06:39 22.4 °F /  -5.3 °C 14.7 °F /  -9.6 °C 30.00in /  1015.8hPa SSW 3.0mph /  4.8km/h 8.0mph /  12.9km/h 72% 0.00in /  0mm
06:44 22.4 °F /  -5.3 °C 14.1 °F /  -9.9 °C 30.00in /  1015.8hPa South 2.0mph /  3.2km/h 8.0mph /  12.9km/h 70% 0.00in /  0mm
06:49 22.0 °F /  -5.6 °C 13.7 °F /  -10.2 °C 30.00in /  1015.8hPa South 3.0mph /  4.8km/h 7.0mph /  11.3km/h 70% 0.00in /  0mm
06:54 22.0 °F /  -5.6 °C 13.7 °F /  -10.2 °C 30.01in /  1016.1hPa SSW 3.0mph /  4.8km/h 4.0mph /  6.4km/h 70% 0.00in /  0mm
06:59 21.8 °F /  -5.7 °C 13.5 °F /  -10.3 °C 30.01in /  1016.1hPa SSW 3.0mph /  4.8km/h 5.0mph /  8km/h 70% 0.00in /  0mm
07:04 21.8 °F /  -5.7 °C 13.5 °F /  -10.3 °C 30.01in /  1016.1hPa SSW 3.0mph /  4.8km/h 6.0mph /  9.7km/h 70% 0.00in /  0mm
07:09 22.0 °F /  -5.6 °C 13.4 °F /  -10.3 °C 30.01in /  1016.1hPa SSW 3.0mph /  4.8km/h 6.0mph /  9.7km/h 69% 0.00in /  0mm
07:14 22.2 °F /  -5.4 °C 13.6 °F /  -10.2 °C 30.01in /  1016.1hPa SSW 4.0mph /  6.4km/h 6.0mph /  9.7km/h 69% 0.00in /  0mm
07:19 22.2 °F /  -5.4 °C 13.2 °F /  -10.4 °C 30.01in /  1016.1hPa SSW 4.0mph /  6.4km/h 6.0mph /  9.7km/h 68% 0.00in /  0mm
07:24 22.1 °F /  -5.5 °C 13.2 °F /  -10.4 °C 30.01in /  1016.1hPa SSW 4.0mph /  6.4km/h 7.0mph /  11.3km/h 68% 0.00in /  0mm
07:29 22.0 °F /  -5.6 °C 12.7 °F /  -10.7 °C 30.01in /  1016.1hPa SSW 3.0mph /  4.8km/h 7.0mph /  11.3km/h 67% 0.00in /  0mm
07:34 21.8 °F /  -5.7 °C 12.5 °F /  -10.8 °C 30.01in /  1016.1hPa SSW 3.0mph /  4.8km/h 6.0mph /  9.7km/h 67% 0.00in /  0mm
07:39 21.6 °F /  -5.8 °C 12.7 °F /  -10.7 °C 30.01in /  1016.1hPa SSW 3.0mph /  4.8km/h 6.0mph /  9.7km/h 68% 0.00in /  0mm
07:44 21.5 °F /  -5.8 °C 12.6 °F /  -10.8 °C 30.02in /  1016.5hPa SSW 4.0mph /  6.4km/h 6.0mph /  9.7km/h 68% 0.00in /  0mm
07:49 21.8 °F /  -5.7 °C 12.9 °F /  -10.6 °C 30.02in /  1016.5hPa SSW 4.0mph /  6.4km/h 6.0mph /  9.7km/h 68% 0.00in /  0mm
07:54 22.0 °F /  -5.6 °C 13.1 °F /  -10.5 °C 30.02in /  1016.5hPa SSW 3.0mph /  4.8km/h 7.0mph /  11.3km/h 68% 0.00in /  0mm
07:59 22.2 °F /  -5.4 °C 12.9 °F /  -10.6 °C 30.02in /  1016.5hPa SSW 3.0mph /  4.8km/h 7.0mph /  11.3km/h 67% 0.00in /  0mm
08:04 22.3 °F /  -5.4 °C 13.0 °F /  -10.6 °C 30.02in /  1016.5hPa SSW 3.0mph /  4.8km/h 6.0mph /  9.7km/h 67% 0.00in /  0mm
08:09 22.4 °F /  -5.3 °C 13.1 °F /  -10.5 °C 30.02in /  1016.5hPa SSW 4.0mph /  6.4km/h 6.0mph /  9.7km/h 67% 0.00in /  0mm
08:14 22.9 °F /  -5.1 °C 13.2 °F /  -10.4 °C 30.02in /  1016.5hPa SSW 4.0mph /  6.4km/h 6.0mph /  9.7km/h 66% 0.00in /  0mm
08:19 23.4 °F /  -4.8 °C 13.7 °F /  -10.2 °C 30.02in /  1016.5hPa SSW 3.0mph /  4.8km/h 7.0mph /  11.3km/h 66% 0.00in /  0mm
08:24 23.7 °F /  -4.6 °C 14.0 °F /  -10 °C 30.02in /  1016.5hPa SSW 3.0mph /  4.8km/h 7.0mph /  11.3km/h 66% 0.00in /  0mm
08:29 24.3 °F /  -4.3 °C 14.9 °F /  -9.5 °C 30.02in /  1016.5hPa WSW 4.0mph /  6.4km/h 10.0mph /  16.1km/h 67% 0.00in /  0mm
08:34 24.7 °F /  -4.1 °C 14.6 °F /  -9.7 °C 30.02in /  1016.5hPa SSW 4.0mph /  6.4km/h 10.0mph /  16.1km/h 65% 0.00in /  0mm
08:39 24.9 °F /  -3.9 °C 14.4 °F /  -9.8 °C 30.02in /  1016.5hPa SW 3.0mph /  4.8km/h 7.0mph /  11.3km/h 64% 0.00in /  0mm
08:44 25.2 °F /  -3.8 °C 14.7 °F /  -9.6 °C 30.02in /  1016.5hPa SW 3.0mph /  4.8km/h 6.0mph /  9.7km/h 64% 0.00in /  0mm
08:49 25.6 °F /  -3.6 °C 15.1 °F /  -9.4 °C 30.02in /  1016.5hPa SSW 4.0mph /  6.4km/h 7.0mph /  11.3km/h 64% 0.00in /  0mm
08:54 26.0 °F /  -3.3 °C 15.1 °F /  -9.4 °C 30.02in /  1016.5hPa SW 2.0mph /  3.2km/h 8.0mph /  12.9km/h 63% 0.00in /  0mm
08:59 26.7 °F /  -2.9 °C 15.4 °F /  -9.2 °C 30.02in /  1016.5hPa SSW 5.0mph /  8km/h 9.0mph /  14.5km/h 62% 0.00in /  0mm
09:04 27.6 °F /  -2.4 °C 15.9 °F /  -8.9 °C 30.03in /  1016.8hPa SSW 4.0mph /  6.4km/h 9.0mph /  14.5km/h 61% 0.00in /  0mm
09:09 28.0 °F /  -2.2 °C 15.9 °F /  -8.9 °C 30.02in /  1016.5hPa SSW 4.0mph /  6.4km/h 9.0mph /  14.5km/h 60% 0.00in /  0mm
09:14 28.5 °F /  -1.9 °C 16.4 °F /  -8.7 °C 30.02in /  1016.5hPa SW 5.0mph /  8km/h 11.0mph /  17.7km/h 60% 0.00in /  0mm
09:19 29.0 °F /  -1.7 °C 16.5 °F /  -8.6 °C 30.02in /  1016.5hPa SSW 2.0mph /  3.2km/h 11.0mph /  17.7km/h 59% 0.00in /  0mm
09:24 29.6 °F /  -1.3 °C 16.2 °F /  -8.8 °C 30.02in /  1016.5hPa SSW 3.0mph /  4.8km/h 6.0mph /  9.7km/h 57% 0.00in /  0mm
09:29 29.8 °F /  -1.2 °C 16.8 °F /  -8.4 °C 30.02in /  1016.5hPa WSW 5.0mph /  8km/h 8.0mph /  12.9km/h 58% 0.00in /  0mm
09:34 29.9 °F /  -1.2 °C 17.3 °F /  -8.2 °C 30.02in /  1016.5hPa SW 4.0mph /  6.4km/h 8.0mph /  12.9km/h 59% 0.00in /  0mm
09:39 30.3 °F /  -0.9 °C 16.9 °F /  -8.4 °C 30.02in /  1016.5hPa SSW 4.0mph /  6.4km/h 8.0mph /  12.9km/h 57% 0.00in /  0mm
09:45 30.2 °F /  -1 °C 17.2 °F /  -8.2 °C 30.02in /  1016.5hPa SW 4.0mph /  6.4km/h 7.0mph /  11.3km/h 58% 0.00in /  0mm
09:54 30.4 °F /  -0.9 °C 18.2 °F /  -7.7 °C 30.02in /  1016.5hPa SW 5.0mph /  8km/h 11.0mph /  17.7km/h 60% 0.00in /  0mm
09:59 30.6 °F /  -0.8 °C 18.7 °F /  -7.4 °C 30.02in /  1016.5hPa SW 6.0mph /  9.7km/h 11.0mph /  17.7km/h 61% 0.00in /  0mm
10:04 30.9 °F /  -0.6 °C 19.0 °F /  -7.2 °C 30.02in /  1016.5hPa WSW 4.0mph /  6.4km/h 10.0mph /  16.1km/h 61% 0.00in /  0mm
10:09 31.2 °F /  -0.4 °C 19.3 °F /  -7.1 °C 30.02in /  1016.5hPa SW 5.0mph /  8km/h 7.0mph /  11.3km/h 61% 0.00in /  0mm
10:14 30.9 °F /  -0.6 °C 18.6 °F /  -7.4 °C 30.02in /  1016.5hPa WSW 7.0mph /  11.3km/h 13.0mph /  20.9km/h 60% 0.00in /  0mm
10:19 30.9 °F /  -0.6 °C 18.6 °F /  -7.4 °C 30.02in /  1016.5hPa SW 5.0mph /  8km/h 13.0mph /  20.9km/h 60% 0.00in /  0mm
10:24 31.1 °F /  -0.5 °C 18.8 °F /  -7.3 °C 30.02in /  1016.5hPa SSW 6.0mph /  9.7km/h 12.0mph /  19.3km/h 60% 0.00in /  0mm
10:29 31.4 °F /  -0.3 °C 19.1 °F /  -7.2 °C 30.02in /  1016.5hPa SSW 4.0mph /  6.4km/h 13.0mph /  20.9km/h 60% 0.00in /  0mm
10:34 31.8 °F /  -0.1 °C 19.1 °F /  -7.2 °C 30.02in /  1016.5hPa SW 4.0mph /  6.4km/h 13.0mph /  20.9km/h 59% 0.00in /  0mm
10:39 32.0 °F /  0 °C 19.3 °F /  -7.1 °C 30.02in /  1016.5hPa West 4.0mph /  6.4km/h 8.0mph /  12.9km/h 59% 0.00in /  0mm
10:44 32.1 °F /  0.1 °C 19.4 °F /  -7 °C 30.02in /  1016.5hPa West 6.0mph /  9.7km/h 11.0mph /  17.7km/h 59% 0.00in /  0mm
10:49 32.2 °F /  0.1 °C 19.9 °F /  -6.7 °C 30.02in /  1016.5hPa WSW 3.0mph /  4.8km/h 11.0mph /  17.7km/h 60% 0.00in /  0mm
10:54 32.2 °F /  0.1 °C 19.5 °F /  -6.9 °C 30.02in /  1016.5hPa SW 7.0mph /  11.3km/h 14.0mph /  22.5km/h 59% 0.00in /  0mm
10:59 32.3 °F /  0.2 °C 20.0 °F /  -6.7 °C 30.02in /  1016.5hPa SW 6.0mph /  9.7km/h 14.0mph /  22.5km/h 60% 0.00in /  0mm
11:04 32.5 °F /  0.3 °C 19.8 °F /  -6.8 °C 30.02in /  1016.5hPa West 4.0mph /  6.4km/h 11.0mph /  17.7km/h 59% 0.00in /  0mm
11:09 32.7 °F /  0.4 °C 20.0 °F /  -6.7 °C 30.01in /  1016.1hPa SW 3.0mph /  4.8km/h 8.0mph /  12.9km/h 59% 0.00in /  0mm
11:14 33.2 °F /  0.7 °C 20.0 °F /  -6.7 °C 30.01in /  1016.1hPa West 5.0mph /  8km/h 8.0mph /  12.9km/h 58% 0.00in /  0mm
11:19 33.3 °F /  0.7 °C 19.7 °F /  -6.8 °C 30.01in /  1016.1hPa West 5.0mph /  8km/h 10.0mph /  16.1km/h 57% 0.00in /  0mm
11:24 33.5 °F /  0.8 °C 19.9 °F /  -6.7 °C 30.01in /  1016.1hPa WSW 7.0mph /  11.3km/h 10.0mph /  16.1km/h 57% 0.00in /  0mm
11:29 33.6 °F /  0.9 °C 20.0 °F /  -6.7 °C 30.01in /  1016.1hPa SW 7.0mph /  11.3km/h 10.0mph /  16.1km/h 57% 0.00in /  0mm
11:34 33.5 °F /  0.8 °C 19.9 °F /  -6.7 °C 30.01in /  1016.1hPa West 4.0mph /  6.4km/h 11.0mph /  17.7km/h 57% 0.00in /  0mm
11:39 33.8 °F /  1 °C 20.2 °F /  -6.6 °C 30.00in /  1015.8hPa SW 5.0mph /  8km/h 11.0mph /  17.7km/h 57% 0.00in /  0mm
11:44 33.9 °F /  1.1 °C 20.3 °F /  -6.5 °C 30.00in /  1015.8hPa West 6.0mph /  9.7km/h 11.0mph /  17.7km/h 57% 0.00in /  0mm
11:49 34.3 °F /  1.3 °C 20.6 °F /  -6.3 °C 30.00in /  1015.8hPa West 5.0mph /  8km/h 11.0mph /  17.7km/h 57% 0.00in /  0mm
11:54 34.6 °F /  1.4 °C 20.5 °F /  -6.4 °C 30.00in /  1015.8hPa SW 6.0mph /  9.7km/h 10.0mph /  16.1km/h 56% 0.00in /  0mm
11:59 34.4 °F /  1.3 °C 19.9 °F /  -6.7 °C 30.00in /  1015.8hPa West 4.0mph /  6.4km/h 10.0mph /  16.1km/h 55% 0.00in /  0mm
12:04 34.4 °F /  1.3 °C 19.9 °F /  -6.7 °C 29.99in /  1015.5hPa WSW 9.0mph /  14.5km/h 13.0mph /  20.9km/h 55% 0.00in /  0mm
12:09 34.3 °F /  1.3 °C 19.8 °F /  -6.8 °C 29.99in /  1015.5hPa SW 5.0mph /  8km/h 13.0mph /  20.9km/h 55% 0.00in /  0mm
12:14 34.4 °F /  1.3 °C 20.3 °F /  -6.5 °C 29.99in /  1015.5hPa WSW 4.0mph /  6.4km/h 11.0mph /  17.7km/h 56% 0.00in /  0mm
12:19 34.9 °F /  1.6 °C 19.9 °F /  -6.7 °C 29.99in /  1015.5hPa WSW 6.0mph /  9.7km/h 12.0mph /  19.3km/h 54% 0.00in /  0mm
12:24 35.0 °F /  1.7 °C 19.6 °F /  -6.9 °C 29.99in /  1015.5hPa WSW 6.0mph /  9.7km/h 14.0mph /  22.5km/h 53% 0.00in /  0mm
12:29 35.1 °F /  1.7 °C 20.1 °F /  -6.6 °C 29.99in /  1015.5hPa WSW 6.0mph /  9.7km/h 14.0mph /  22.5km/h 54% 0.00in /  0mm
12:34 35.3 °F /  1.8 °C 19.4 °F /  -7 °C 29.98in /  1015.1hPa West 7.0mph /  11.3km/h 12.0mph /  19.3km/h 52% 0.00in /  0mm
12:39 35.6 °F /  2 °C 19.7 °F /  -6.8 °C 29.98in /  1015.1hPa West 4.0mph /  6.4km/h 12.0mph /  19.3km/h 52% 0.00in /  0mm
12:44 35.9 °F /  2.2 °C 19.1 °F /  -7.2 °C 29.98in /  1015.1hPa WSW 8.0mph /  12.9km/h 12.0mph /  19.3km/h 50% 0.00in /  0mm
12:49 36.1 °F /  2.3 °C 19.7 °F /  -6.8 °C 29.98in /  1015.1hPa WSW 6.0mph /  9.7km/h 11.0mph /  17.7km/h 51% 0.00in /  0mm
12:54 36.4 °F /  2.4 °C 20.0 °F /  -6.7 °C 29.98in /  1015.1hPa SW 6.0mph /  9.7km/h 11.0mph /  17.7km/h 51% 0.00in /  0mm
12:59 36.4 °F /  2.4 °C 19.5 °F /  -6.9 °C 29.98in /  1015.1hPa WSW 6.0mph /  9.7km/h 11.0mph /  17.7km/h 50% 0.00in /  0mm
13:04 36.6 °F /  2.6 °C 19.7 °F /  -6.8 °C 29.97in /  1014.8hPa WNW 6.0mph /  9.7km/h 11.0mph /  17.7km/h 50% 0.00in /  0mm
13:09 36.6 °F /  2.6 °C 19.2 °F /  -7.1 °C 29.97in /  1014.8hPa West 4.0mph /  6.4km/h 8.0mph /  12.9km/h 49% 0.00in /  0mm
13:14 36.9 °F /  2.7 °C 19.5 °F /  -6.9 °C 29.97in /  1014.8hPa SW 6.0mph /  9.7km/h 10.0mph /  16.1km/h 49% 0.00in /  0mm
13:19 37.0 °F /  2.8 °C 19.6 °F /  -6.9 °C 29.97in /  1014.8hPa West 7.0mph /  11.3km/h 10.0mph /  16.1km/h 49% 0.00in /  0mm
13:24 37.2 °F /  2.9 °C 19.3 °F /  -7.1 °C 29.97in /  1014.8hPa WSW 3.0mph /  4.8km/h 10.0mph /  16.1km/h 48% 0.00in /  0mm
13:29 37.5 °F /  3.1 °C 19.6 °F /  -6.9 °C 29.96in /  1014.4hPa SW 5.0mph /  8km/h 10.0mph /  16.1km/h 48% 0.00in /  0mm
13:34 37.6 °F /  3.1 °C 19.2 °F /  -7.1 °C 29.96in /  1014.4hPa WSW 6.0mph /  9.7km/h 11.0mph /  17.7km/h 47% 0.00in /  0mm
13:39 37.9 °F /  3.3 °C 20.0 °F /  -6.7 °C 29.96in /  1014.4hPa SW 4.0mph /  6.4km/h 11.0mph /  17.7km/h 48% 0.00in /  0mm
13:44 38.4 °F /  3.6 °C 19.4 °F /  -7 °C 29.96in /  1014.4hPa SW 5.0mph /  8km/h 8.0mph /  12.9km/h 46% 0.00in /  0mm
13:49 38.6 °F /  3.7 °C 19.6 °F /  -6.9 °C 29.96in /  1014.4hPa West 4.0mph /  6.4km/h 8.0mph /  12.9km/h 46% 0.00in /  0mm
13:54 38.6 °F /  3.7 °C 20.6 °F /  -6.3 °C 29.96in /  1014.4hPa WSW 4.0mph /  6.4km/h 9.0mph /  14.5km/h 48% 0.00in /  0mm
13:59 38.7 °F /  3.7 °C 19.2 °F /  -7.1 °C 29.96in /  1014.4hPa WSW 5.0mph /  8km/h 9.0mph /  14.5km/h 45% 0.00in /  0mm
14:04 38.6 °F /  3.7 °C 19.6 °F /  -6.9 °C 29.95in /  1014.1hPa WSW 6.0mph /  9.7km/h 10.0mph /  16.1km/h 46% 0.00in /  0mm
14:09 39.0 °F /  3.9 °C 19.5 °F /  -6.9 °C 29.95in /  1014.1hPa WSW 4.0mph /  6.4km/h 10.0mph /  16.1km/h 45% 0.00in /  0mm
14:19 39.4 °F /  4.1 °C 19.3 °F /  -7.1 °C 29.95in /  1014.1hPa West 3.0mph /  4.8km/h 10.0mph /  16.1km/h 44% 0.00in /  0mm
14:24 39.5 °F /  4.2 °C 19.4 °F /  -7 °C 29.95in /  1014.1hPa WNW 3.0mph /  4.8km/h 10.0mph /  16.1km/h 44% 0.00in /  0mm
14:29 39.8 °F /  4.3 °C 19.7 °F /  -6.8 °C 29.95in /  1014.1hPa SW 4.0mph /  6.4km/h 10.0mph /  16.1km/h 44% 0.00in /  0mm
14:34 39.8 °F /  4.3 °C 19.1 °F /  -7.2 °C 29.95in /  1014.1hPa WSW 2.0mph /  3.2km/h 8.0mph /  12.9km/h 43% 0.00in /  0mm
14:44 40.0 °F /  4.4 °C 18.8 °F /  -7.3 °C 29.95in /  1014.1hPa SW 2.0mph /  3.2km/h 8.0mph /  12.9km/h 42% 0.00in /  0mm
14:49 40.2 °F /  4.6 °C 18.4 °F /  -7.6 °C 29.95in /  1014.1hPa SW 6.0mph /  9.7km/h 11.0mph /  17.7km/h 41% 0.00in /  0mm
14:54 40.0 °F /  4.4 °C 18.2 °F /  -7.7 °C 29.95in /  1014.1hPa West 3.0mph /  4.8km/h 11.0mph /  17.7km/h 41% 0.00in /  0mm
14:59 40.2 °F /  4.6 °C 18.9 °F /  -7.3 °C 29.95in /  1014.1hPa WSW 3.0mph /  4.8km/h 8.0mph /  12.9km/h 42% 0.00in /  0mm
15:04 40.6 °F /  4.8 °C 18.2 °F /  -7.7 °C 29.95in /  1014.1hPa SW 4.0mph /  6.4km/h 7.0mph /  11.3km/h 40% 0.00in /  0mm
15:09 40.6 °F /  4.8 °C 18.7 °F /  -7.4 °C 29.95in /  1014.1hPa WSW 4.0mph /  6.4km/h 7.0mph /  11.3km/h 41% 0.00in /  0mm
15:14 40.6 °F /  4.8 °C 18.2 °F /  -7.7 °C 29.95in /  1014.1hPa WSW 6.0mph /  9.7km/h 9.0mph /  14.5km/h 40% 0.00in /  0mm
15:19 40.3 °F /  4.6 °C 18.5 °F /  -7.5 °C 29.95in /  1014.1hPa West 5.0mph /  8km/h 9.0mph /  14.5km/h 41% 0.00in /  0mm
15:24 40.5 °F /  4.7 °C 18.1 °F /  -7.7 °C 29.95in /  1014.1hPa SW 5.0mph /  8km/h 9.0mph /  14.5km/h 40% 0.00in /  0mm
15:29 40.5 °F /  4.7 °C 18.6 °F /  -7.4 °C 29.96in /  1014.4hPa WSW 2.0mph /  3.2km/h 10.0mph /  16.1km/h 41% 0.00in /  0mm
15:34 40.7 °F /  4.8 °C 18.2 °F /  -7.7 °C 29.96in /  1014.4hPa WSW 4.0mph /  6.4km/h 10.0mph /  16.1km/h 40% 0.00in /  0mm
15:39 40.5 °F /  4.7 °C 17.5 °F /  -8.1 °C 29.95in /  1014.1hPa SW 5.0mph /  8km/h 9.0mph /  14.5km/h 39% 0.00in /  0mm
15:44 40.6 °F /  4.8 °C 18.2 °F /  -7.7 °C 29.95in /  1014.1hPa WSW 4.0mph /  6.4km/h 9.0mph /  14.5km/h 40% 0.00in /  0mm
15:49 40.8 °F /  4.9 °C 18.3 °F /  -7.6 °C 29.96in /  1014.4hPa SW 3.0mph /  4.8km/h 7.0mph /  11.3km/h 40% 0.00in /  0mm
15:54 40.7 °F /  4.8 °C 17.1 °F /  -8.3 °C 29.96in /  1014.4hPa SW 5.0mph /  8km/h 8.0mph /  12.9km/h 38% 0.00in /  0mm
15:59 40.2 °F /  4.6 °C 16.6 °F /  -8.6 °C 29.96in /  1014.4hPa WSW 4.0mph /  6.4km/h 10.0mph /  16.1km/h 38% 0.00in /  0mm
16:04 40.2 °F /  4.6 °C 17.2 °F /  -8.2 °C 29.96in /  1014.4hPa SW 4.0mph /  6.4km/h 10.0mph /  16.1km/h 39% 0.00in /  0mm
16:09 40.1 °F /  4.5 °C 17.1 °F /  -8.3 °C 29.96in /  1014.4hPa WSW 4.0mph /  6.4km/h 9.0mph /  14.5km/h 39% 0.00in /  0mm
16:14 40.1 °F /  4.5 °C 17.1 °F /  -8.3 °C 29.96in /  1014.4hPa SSW 5.0mph /  8km/h 9.0mph /  14.5km/h 39% 0.00in /  0mm
16:19 40.1 °F /  4.5 °C 17.7 °F /  -7.9 °C 29.96in /  1014.4hPa WSW 3.0mph /  4.8km/h 9.0mph /  14.5km/h 40% 0.00in /  0mm
16:24 39.9 °F /  4.4 °C 16.9 °F /  -8.4 °C 29.95in /  1014.1hPa SW 3.0mph /  4.8km/h 7.0mph /  11.3km/h 39% 0.00in /  0mm
16:29 39.7 °F /  4.3 °C 17.3 °F /  -8.2 °C 29.95in /  1014.1hPa SSW 3.0mph /  4.8km/h 7.0mph /  11.3km/h 40% 0.00in /  0mm
16:34 39.3 °F /  4.1 °C 17.6 °F /  -8 °C 29.95in /  1014.1hPa Calm   8.0mph /  12.9km/h 41% 0.00in /  0mm
16:39 38.9 °F /  3.8 °C 17.2 °F /  -8.2 °C 29.95in /  1014.1hPa SW 2.0mph /  3.2km/h 8.0mph /  12.9km/h 41% 0.00in /  0mm
16:45 38.6 °F /  3.7 °C 16.9 °F /  -8.4 °C 29.95in /  1014.1hPa SSW 3.0mph /  4.8km/h 6.0mph /  9.7km/h 41% 0.00in /  0mm
16:54 37.7 °F /  3.2 °C 17.2 °F /  -8.2 °C 29.95in /  1014.1hPa WSW 1.0mph /  1.6km/h 4.0mph /  6.4km/h 43% 0.00in /  0mm
16:59 37.0 °F /  2.8 °C 17.1 °F /  -8.3 °C 29.95in /  1014.1hPa Calm   4.0mph /  6.4km/h 44% 0.00in /  0mm
17:04 36.4 °F /  2.4 °C 16.6 °F /  -8.6 °C 29.95in /  1014.1hPa WSW 1.0mph /  1.6km/h 4.0mph /  6.4km/h 44% 0.00in /  0mm
17:09 35.8 °F /  2.1 °C 16.5 °F /  -8.6 °C 29.96in /  1014.4hPa WSW 2.0mph /  3.2km/h 4.0mph /  6.4km/h 45% 0.00in /  0mm
17:14 35.0 °F /  1.7 °C 16.3 °F /  -8.7 °C 29.96in /  1014.4hPa WSW 2.0mph /  3.2km/h 4.0mph /  6.4km/h 46% 0.00in /  0mm
17:19 34.6 °F /  1.4 °C 15.9 °F /  -8.9 °C 29.96in /  1014.4hPa SW 2.0mph /  3.2km/h 4.0mph /  6.4km/h 46% 0.00in /  0mm
17:24 34.6 °F /  1.4 °C 15.9 °F /  -8.9 °C 29.96in /  1014.4hPa SW 3.0mph /  4.8km/h 5.0mph /  8km/h 46% 0.00in /  0mm
17:35 34.4 °F /  1.3 °C 16.2 °F /  -8.8 °C 29.96in /  1014.4hPa SW 3.0mph /  4.8km/h 4.0mph /  6.4km/h 47% 0.00in /  0mm
17:44 33.5 °F /  0.8 °C 15.9 °F /  -8.9 °C 29.97in /  1014.8hPa SW 2.0mph /  3.2km/h 4.0mph /  6.4km/h 48% 0.00in /  0mm
17:49 33.0 °F /  0.6 °C 15.9 °F /  -8.9 °C 29.97in /  1014.8hPa SW 3.0mph /  4.8km/h 6.0mph /  9.7km/h 49% 0.00in /  0mm
17:59 33.2 °F /  0.7 °C 16.1 °F /  -8.8 °C 29.97in /  1014.8hPa SSW 2.0mph /  3.2km/h 6.0mph /  9.7km/h 49% 0.00in /  0mm
18:04 33.0 °F /  0.6 °C 15.4 °F /  -9.2 °C 29.97in /  1014.8hPa SSW 2.0mph /  3.2km/h 5.0mph /  8km/h 48% 0.00in /  0mm
18:09 33.3 °F /  0.7 °C 15.7 °F /  -9.1 °C 29.97in /  1014.8hPa SSW 3.0mph /  4.8km/h 5.0mph /  8km/h 48% 0.00in /  0mm
18:14 33.7 °F /  0.9 °C 15.1 °F /  -9.4 °C 29.97in /  1014.8hPa South 2.0mph /  3.2km/h 6.0mph /  9.7km/h 46% 0.00in /  0mm
18:19 33.7 °F /  0.9 °C 15.1 °F /  -9.4 °C 29.97in /  1014.8hPa South 2.0mph /  3.2km/h 6.0mph /  9.7km/h 46% 0.00in /  0mm
18:24 33.1 °F /  0.6 °C 15.5 °F /  -9.2 °C 29.97in /  1014.8hPa South 2.0mph /  3.2km/h 3.0mph /  4.8km/h 48% 0.00in /  0mm
18:29 32.3 °F /  0.2 °C 15.3 °F /  -9.3 °C 29.98in /  1015.1hPa South 1.0mph /  1.6km/h 3.0mph /  4.8km/h 49% 0.00in /  0mm
18:35 31.6 °F /  -0.2 °C 15.1 °F /  -9.4 °C 29.97in /  1014.8hPa South 2.0mph /  3.2km/h 3.0mph /  4.8km/h 50% 0.00in /  0mm
18:44 31.2 °F /  -0.4 °C 15.2 °F /  -9.3 °C 29.98in /  1015.1hPa South 2.0mph /  3.2km/h 3.0mph /  4.8km/h 51% 0.00in /  0mm
18:49 31.1 °F /  -0.5 °C 15.1 °F /  -9.4 °C 29.98in /  1015.1hPa South 2.0mph /  3.2km/h 3.0mph /  4.8km/h 51% 0.00in /  0mm
18:54 31.0 °F /  -0.6 °C 15.4 °F /  -9.2 °C 29.98in /  1015.1hPa Calm   3.0mph /  4.8km/h 52% 0.00in /  0mm
18:59 31.1 °F /  -0.5 °C 15.1 °F /  -9.4 °C 29.98in /  1015.1hPa SSW 2.0mph /  3.2km/h 4.0mph /  6.4km/h 51% 0.00in /  0mm
19:04 31.2 °F /  -0.4 °C 15.2 °F /  -9.3 °C 29.98in /  1015.1hPa SSW 2.0mph /  3.2km/h 4.0mph /  6.4km/h 51% 0.00in /  0mm
19:09 31.0 °F /  -0.6 °C 15.0 °F /  -9.4 °C 29.98in /  1015.1hPa SW 2.0mph /  3.2km/h 3.0mph /  4.8km/h 51% 0.00in /  0mm
19:14 31.3 °F /  -0.4 °C 15.3 °F /  -9.3 °C 29.98in /  1015.1hPa SW 2.0mph /  3.2km/h 5.0mph /  8km/h 51% 0.00in /  0mm
19:19 32.1 °F /  0.1 °C 15.1 °F /  -9.4 °C 29.98in /  1015.1hPa West 2.0mph /  3.2km/h 8.0mph /  12.9km/h 49% 0.00in /  0mm
19:24 32.6 °F /  0.3 °C 14.6 °F /  -9.7 °C 29.98in /  1015.1hPa WNW 1.0mph /  1.6km/h 8.0mph /  12.9km/h 47% 0.00in /  0mm
19:29 32.4 °F /  0.2 °C 14.4 °F /  -9.8 °C 29.98in /  1015.1hPa West 3.0mph /  4.8km/h 7.0mph /  11.3km/h 47% 0.00in /  0mm
19:34 32.2 °F /  0.1 °C 14.7 °F /  -9.6 °C 29.98in /  1015.1hPa West 2.0mph /  3.2km/h 5.0mph /  8km/h 48% 0.00in /  0mm
19:39 32.0 °F /  0 °C 14.5 °F /  -9.7 °C 29.98in /  1015.1hPa WNW 2.0mph /  3.2km/h 4.0mph /  6.4km/h 48% 0.00in /  0mm
19:44 31.7 °F /  -0.2 °C 14.2 °F /  -9.9 °C 29.98in /  1015.1hPa WNW 1.0mph /  1.6km/h 4.0mph /  6.4km/h 48% 0.00in /  0mm
19:49 31.6 °F /  -0.2 °C 14.6 °F /  -9.7 °C 29.98in /  1015.1hPa West 2.0mph /  3.2km/h 5.0mph /  8km/h 49% 0.00in /  0mm
19:54 31.4 °F /  -0.3 °C 14.4 °F /  -9.8 °C 29.98in /  1015.1hPa West 1.0mph /  1.6km/h 5.0mph /  8km/h 49% 0.00in /  0mm
19:59 31.7 °F /  -0.2 °C 14.7 °F /  -9.6 °C 29.99in /  1015.5hPa West 2.0mph /  3.2km/h 6.0mph /  9.7km/h 49% 0.00in /  0mm
20:04 31.7 °F /  -0.2 °C 14.7 °F /  -9.6 °C 29.99in /  1015.5hPa WSW 2.0mph /  3.2km/h 6.0mph /  9.7km/h 49% 0.00in /  0mm
20:09 31.5 °F /  -0.3 °C 14.5 °F /  -9.7 °C 29.99in /  1015.5hPa Calm   4.0mph /  6.4km/h 49% 0.00in /  0mm
20:14 31.3 °F /  -0.4 °C 14.8 °F /  -9.6 °C 30.00in /  1015.8hPa WSW 2.0mph /  3.2km/h 3.0mph /  4.8km/h 50% 0.00in /  0mm
20:19 30.8 °F /  -0.7 °C 14.3 °F /  -9.8 °C 30.00in /  1015.8hPa WSW 1.0mph /  1.6km/h 3.0mph /  4.8km/h 50% 0.00in /  0mm
20:24 30.4 °F /  -0.9 °C 14.4 °F /  -9.8 °C 30.00in /  1015.8hPa Calm   3.0mph /  4.8km/h 51% 0.00in /  0mm
20:29 30.0 °F /  -1.1 °C 14.1 °F /  -9.9 °C 29.99in /  1015.5hPa Calm   3.0mph /  4.8km/h 51% 0.00in /  0mm
20:34 29.4 °F /  -1.4 °C 13.9 °F /  -10.1 °C 30.00in /  1015.8hPa Calm   2.0mph /  3.2km/h 52% 0.00in /  0mm
20:39 29.6 °F /  -1.3 °C 14.1 °F /  -9.9 °C 30.00in /  1015.8hPa SSW 2.0mph /  3.2km/h 5.0mph /  8km/h 52% 0.00in /  0mm
20:44 30.1 °F /  -1.1 °C 14.1 °F /  -9.9 °C 30.00in /  1015.8hPa SSW 2.0mph /  3.2km/h 5.0mph /  8km/h 51% 0.00in /  0mm
20:49 30.1 °F /  -1.1 °C 13.7 °F /  -10.2 °C 29.99in /  1015.5hPa Calm   4.0mph /  6.4km/h 50% 0.00in /  0mm
20:54 29.9 °F /  -1.2 °C 14.0 °F /  -10 °C 30.00in /  1015.8hPa SSW 2.0mph /  3.2km/h 4.0mph /  6.4km/h 51% 0.00in /  0mm
20:59 29.7 °F /  -1.3 °C 13.8 °F /  -10.1 °C 30.00in /  1015.8hPa SSW 2.0mph /  3.2km/h 4.0mph /  6.4km/h 51% 0.00in /  0mm
21:04 29.7 °F /  -1.3 °C 13.8 °F /  -10.1 °C 30.00in /  1015.8hPa Calm   4.0mph /  6.4km/h 51% 0.00in /  0mm
21:09 29.8 °F /  -1.2 °C 13.9 °F /  -10.1 °C 30.00in /  1015.8hPa Calm   2.0mph /  3.2km/h 51% 0.00in /  0mm
21:14 29.8 °F /  -1.2 °C 15.6 °F /  -9.1 °C 30.00in /  1015.8hPa Calm     55% 0.00in /  0mm
21:19 29.6 °F /  -1.3 °C 15.4 °F /  -9.2 °C 30.01in /  1016.1hPa SSW 2.0mph /  3.2km/h 2.0mph /  3.2km/h 55% 0.00in /  0mm
21:24 29.1 °F /  -1.6 °C 15.4 °F /  -9.2 °C 30.01in /  1016.1hPa Calm   2.0mph /  3.2km/h 56% 0.00in /  0mm
21:29 28.4 °F /  -2 °C 14.7 °F /  -9.6 °C 30.01in /  1016.1hPa Calm   1.0mph /  1.6km/h 56% 0.00in /  0mm
21:34 27.6 °F /  -2.4 °C 14.4 °F /  -9.8 °C 30.01in /  1016.1hPa Calm     57% 0.00in /  0mm
21:39 26.5 °F /  -3.1 °C 14.1 °F /  -9.9 °C 30.00in /  1015.8hPa Calm     59% 0.00in /  0mm
21:44 25.9 °F /  -3.4 °C 14.3 °F /  -9.8 °C 30.00in /  1015.8hPa Calm   1.0mph /  1.6km/h 61% 0.00in /  0mm
21:49 25.5 °F /  -3.6 °C 14.3 °F /  -9.8 °C 30.00in /  1015.8hPa Calm   1.0mph /  1.6km/h 62% 0.00in /  0mm
21:54 25.1 °F /  -3.8 °C 13.9 °F /  -10.1 °C 30.00in /  1015.8hPa Calm     62% 0.00in /  0mm
21:59 25.4 °F /  -3.7 °C 14.2 °F /  -9.9 °C 30.01in /  1016.1hPa Calm     62% 0.00in /  0mm
22:04 25.5 °F /  -3.6 °C 13.9 °F /  -10.1 °C 30.01in /  1016.1hPa Calm     61% 0.00in /  0mm
22:09 26.1 °F /  -3.3 °C 14.1 °F /  -9.9 °C 30.01in /  1016.1hPa Calm   2.0mph /  3.2km/h 60% 0.00in /  0mm
22:14 27.0 °F /  -2.8 °C 14.2 °F /  -9.9 °C 30.01in /  1016.1hPa SSW 1.0mph /  1.6km/h 2.0mph /  3.2km/h 58% 0.00in /  0mm
22:19 28.0 °F /  -2.2 °C 14.3 °F /  -9.8 °C 30.01in /  1016.1hPa Calm   2.0mph /  3.2km/h 56% 0.00in /  0mm
22:24 28.5 °F /  -1.9 °C 14.0 °F /  -10 °C 30.01in /  1016.1hPa Calm   2.0mph /  3.2km/h 54% 0.00in /  0mm
22:29 28.5 °F /  -1.9 °C 14.4 °F /  -9.8 °C 30.01in /  1016.1hPa South 1.0mph /  1.6km/h 3.0mph /  4.8km/h 55% 0.00in /  0mm
22:34 28.6 °F /  -1.9 °C 14.1 °F /  -9.9 °C 30.01in /  1016.1hPa South 1.0mph /  1.6km/h 4.0mph /  6.4km/h 54% 0.00in /  0mm
22:39 28.3 °F /  -2.1 °C 13.8 °F /  -10.1 °C 30.01in /  1016.1hPa Calm   4.0mph /  6.4km/h 54% 0.00in /  0mm
22:44 27.6 °F /  -2.4 °C 13.5 °F /  -10.3 °C 30.01in /  1016.1hPa Calm   1.0mph /  1.6km/h 55% 0.00in /  0mm
22:49 26.2 °F /  -3.2 °C 13.4 °F /  -10.3 °C 30.01in /  1016.1hPa Calm     58% 0.00in /  0mm
22:54 25.3 °F /  -3.7 °C 13.0 °F /  -10.6 °C 30.01in /  1016.1hPa South 2.0mph /  3.2km/h 3.0mph /  4.8km/h 59% 0.00in /  0mm
22:59 25.5 °F /  -3.6 °C 13.2 °F /  -10.4 °C 30.01in /  1016.1hPa South 3.0mph /  4.8km/h 5.0mph /  8km/h 59% 0.00in /  0mm
23:04 26.2 °F /  -3.2 °C 13.4 °F /  -10.3 °C 30.01in /  1016.1hPa South 3.0mph /  4.8km/h 5.0mph /  8km/h 58% 0.00in /  0mm
23:09 26.9 °F /  -2.8 °C 13.7 °F /  -10.2 °C 30.01in /  1016.1hPa SSW 3.0mph /  4.8km/h 5.0mph /  8km/h 57% 0.00in /  0mm
23:14 27.4 °F /  -2.6 °C 13.8 °F /  -10.1 °C 30.01in /  1016.1hPa SSW 2.0mph /  3.2km/h 5.0mph /  8km/h 56% 0.00in /  0mm
23:19 27.5 °F /  -2.5 °C 13.4 °F /  -10.3 °C 30.01in /  1016.1hPa SSW 3.0mph /  4.8km/h 4.0mph /  6.4km/h 55% 0.00in /  0mm
23:24 27.1 °F /  -2.7 °C 13.5 °F /  -10.3 °C 30.01in /  1016.1hPa SSW 3.0mph /  4.8km/h 4.0mph /  6.4km/h 56% 0.00in /  0mm
23:29 26.6 °F /  -3 °C 13.4 °F /  -10.3 °C 30.01in /  1016.1hPa SSW 2.0mph /  3.2km/h 4.0mph /  6.4km/h 57% 0.00in /  0mm
23:34 26.5 °F /  -3.1 °C 13.3 °F /  -10.4 °C 30.01in /  1016.1hPa SSW 2.0mph /  3.2km/h 5.0mph /  8km/h 57% 0.00in /  0mm
23:39 27.0 °F /  -2.8 °C 13.4 °F /  -10.3 °C 30.01in /  1016.1hPa SSW 2.0mph /  3.2km/h 6.0mph /  9.7km/h 56% 0.00in /  0mm
23:44 27.3 °F /  -2.6 °C 13.3 °F /  -10.4 °C 30.01in /  1016.1hPa SSW 3.0mph /  4.8km/h 6.0mph /  9.7km/h 55% 0.00in /  0mm
23:49 27.4 °F /  -2.6 °C 13.4 °F /  -10.3 °C 30.02in /  1016.5hPa SSW 3.0mph /  4.8km/h 6.0mph /  9.7km/h 55% 0.00in /  0mm
23:54 27.3 °F /  -2.6 °C 13.3 °F /  -10.4 °C 30.02in /  1016.5hPa SSW 2.0mph /  3.2km/h 6.0mph /  9.7km/h 55% 0.00in /  0mm
23:59 27.2 °F /  -2.7 °C 13.2 °F /  -10.4 °C 30.01in /  1016.1hPa SSW 3.0mph /  4.8km/h 4.0mph /  6.4km/h 55% 0.00in /  0mm
Westford Weather
Compliments of Weather Underground

 
 
Current Radar Loop:

Copyright © WestfordWeather.net 2007-2014. All rights reserved.